createdAt,value
2022-10-25T00:02:47.617Z,11.93
2022-10-25T00:07:53.738Z,11.88
2022-10-25T00:13:00.177Z,12.00
2022-10-25T00:18:08.296Z,12.05
2022-10-25T00:23:14.417Z,11.98
2022-10-25T00:28:20.376Z,11.98
2022-10-25T00:33:27.830Z,12.12
2022-10-25T00:38:33.971Z,12.08
2022-10-25T00:43:43.989Z,12.12
2022-10-25T00:48:59.283Z,12.16
2022-10-25T00:54:05.687Z,12.28
2022-10-25T00:59:16.443Z,12.34
2022-10-25T01:04:28.171Z,12.33
2022-10-25T01:09:38.039Z,12.28
2022-10-25T01:14:49.759Z,12.24
2022-10-25T01:20:29.505Z,12.10
2022-10-25T01:26:12.240Z,11.92
2022-10-25T01:31:36.329Z,11.90
2022-10-25T01:36:48.197Z,11.96
2022-10-25T01:42:03.136Z,12.06
2022-10-25T01:47:16.444Z,12.18
2022-10-25T01:52:24.803Z,12.27
2022-10-25T01:58:00.116Z,12.27
2022-10-25T02:03:20.396Z,12.30
2022-10-25T02:08:36.263Z,12.34
2022-10-25T02:13:55.976Z,12.36
2022-10-25T02:19:06.407Z,12.36
2022-10-25T02:24:18.479Z,12.28
2022-10-25T02:29:27.728Z,12.23
2022-10-25T02:34:38.947Z,12.20
2022-10-25T02:39:45.958Z,12.13
2022-10-25T02:44:51.987Z,12.12
2022-10-25T02:49:59.346Z,12.13
2022-10-25T02:55:05.850Z,12.14
2022-10-25T03:00:14.952Z,12.12
2022-10-25T03:05:22.406Z,12.08
2022-10-25T03:10:28.519Z,12.04
2022-10-25T03:15:34.294Z,12.04
2022-10-25T03:20:42.517Z,12.04
2022-10-25T03:25:49.749Z,12.05
2022-10-25T03:30:59.203Z,12.05
2022-10-25T03:36:07.491Z,12.05
2022-10-25T03:41:13.780Z,12.04
2022-10-25T03:46:19.607Z,12.04
2022-10-25T03:51:27.202Z,12.03
2022-10-25T03:56:33.003Z,11.98
2022-10-25T04:01:39.075Z,12.02
2022-10-25T04:06:46.562Z,12.07
2022-10-25T04:11:52.559Z,12.09
2022-10-25T04:16:58.578Z,12.02
2022-10-25T04:22:06.122Z,11.96
2022-10-25T04:27:12.108Z,11.90
2022-10-25T04:37:30.275Z,11.79
2022-10-25T04:42:37.032Z,11.78
2022-10-25T04:47:42.976Z,11.70
2022-10-25T04:52:50.571Z,11.65
2022-10-25T04:57:57.767Z,11.61
2022-10-25T05:03:03.877Z,11.53
2022-10-25T05:08:11.580Z,11.49
2022-10-25T05:13:17.764Z,11.47
2022-10-25T05:18:28.478Z,11.40
2022-10-25T05:23:40.407Z,11.35
2022-10-25T05:28:48.707Z,11.27
2022-10-25T05:33:57.220Z,11.23
2022-10-25T05:39:04.962Z,11.25
2022-10-25T05:44:11.358Z,11.25
2022-10-25T05:49:17.295Z,11.19
2022-10-25T05:54:25.161Z,11.17
2022-10-25T05:59:31.271Z,11.11
2022-10-25T06:04:37.208Z,11.08
2022-10-25T06:09:44.566Z,11.04
2022-10-25T06:14:50.485Z,11.10
2022-10-25T06:19:56.899Z,11.13
2022-10-25T06:25:04.565Z,11.16
2022-10-25T06:30:12.486Z,11.22
2022-10-25T06:35:18.494Z,11.31
2022-10-25T06:40:26.181Z,11.30
2022-10-25T06:45:32.335Z,11.40
2022-10-25T06:50:38.472Z,11.45
2022-10-25T06:55:47.467Z,11.47
2022-10-25T07:00:53.386Z,11.51
2022-10-25T07:06:01.914Z,11.51
2022-10-25T07:11:14.249Z,11.56
2022-10-25T07:16:22.785Z,11.57
2022-10-25T07:21:29.791Z,11.61
2022-10-25T07:26:37.421Z,11.66
2022-10-25T07:31:45.618Z,11.75
2022-10-25T07:36:51.686Z,11.87
2022-10-25T07:42:00.248Z,11.94
2022-10-25T07:47:06.473Z,11.95
2022-10-25T07:52:14.178Z,11.95
2022-10-25T07:57:21.770Z,12.02
2022-10-25T08:02:28.250Z,12.14
2022-10-25T08:07:34.235Z,12.20
2022-10-25T08:12:41.822Z,12.27
2022-10-25T08:17:48.382Z,12.29
2022-10-25T08:22:54.940Z,12.26
2022-10-25T08:28:02.326Z,12.39
2022-10-25T08:33:11.653Z,12.42
2022-10-25T08:38:17.885Z,12.42
2022-10-25T08:43:57.731Z,12.49
2022-10-25T08:49:16.133Z,12.59
2022-10-25T08:54:29.873Z,12.61
2022-10-25T08:59:43.459Z,12.73
2022-10-25T09:04:49.528Z,12.83
2022-10-25T09:10:06.527Z,12.86
2022-10-25T09:15:23.229Z,12.84
2022-10-25T09:20:33.945Z,12.85
2022-10-25T09:25:52.968Z,12.85
2022-10-25T09:31:01.473Z,12.89
2022-10-25T09:36:09.977Z,12.95
2022-10-25T09:41:21.051Z,13.03
2022-10-25T09:46:39.627Z,13.05
2022-10-25T09:52:00.347Z,13.04
2022-10-25T09:57:06.506Z,12.98
2022-10-25T10:02:23.016Z,12.95
2022-10-25T10:07:34.535Z,12.99
2022-10-25T10:12:47.987Z,13.02
2022-10-25T10:18:24.594Z,13.02
2022-10-25T10:23:34.987Z,13.00
2022-10-25T10:28:48.175Z,13.11
2022-10-25T10:33:55.776Z,13.12
2022-10-25T10:39:23.072Z,13.14
2022-10-25T10:44:29.393Z,13.22
2022-10-25T10:49:41.962Z,13.27
2022-10-25T10:54:51.008Z,13.35
2022-10-25T10:59:58.943Z,13.30
2022-10-25T11:05:22.922Z,13.36
2022-10-25T11:10:32.681Z,13.39
2022-10-25T11:16:32.657Z,13.48
2022-10-25T11:22:16.928Z,13.58
2022-10-25T11:27:38.829Z,13.58
2022-10-25T11:33:40.744Z,13.57
2022-10-25T11:39:07.795Z,13.59
2022-10-25T11:45:01.331Z,13.64
2022-10-25T11:50:24.190Z,13.65
2022-10-25T11:55:40.585Z,13.72
2022-10-25T12:00:57.641Z,13.78
2022-10-25T12:06:17.080Z,13.83
2022-10-25T12:11:32.099Z,13.88
2022-10-25T12:16:40.543Z,13.87
2022-10-25T12:21:55.714Z,13.90
2022-10-25T12:27:06.905Z,13.89
2022-10-25T12:32:19.079Z,13.95
2022-10-25T12:37:36.230Z,13.99
2022-10-25T12:42:49.379Z,14.03
2022-10-25T12:48:14.974Z,14.10
2022-10-25T12:54:16.996Z,14.18
2022-10-25T12:59:46.633Z,14.25
2022-10-25T13:05:13.090Z,14.21
2022-10-25T13:10:22.435Z,14.21
2022-10-25T13:15:43.562Z,14.14
2022-10-25T13:20:52.682Z,14.16
2022-10-25T13:26:08.700Z,14.16
2022-10-25T13:31:48.719Z,14.13
2022-10-25T13:36:57.831Z,14.10
2022-10-25T13:42:23.694Z,14.06
2022-10-25T13:47:42.230Z,14.05
2022-10-25T13:53:03.019Z,14.02
2022-10-25T13:58:46.008Z,14.01
2022-10-25T14:04:15.506Z,13.99
2022-10-25T14:09:34.439Z,13.98
2022-10-25T14:14:56.669Z,13.99
2022-10-25T14:20:30.452Z,13.98
2022-10-25T14:25:42.483Z,13.96
2022-10-25T14:31:00.628Z,13.95
2022-10-25T14:36:28.789Z,13.93
2022-10-25T14:41:53.472Z,13.92
2022-10-25T14:47:04.191Z,13.93
2022-10-25T14:52:11.798Z,13.93
2022-10-25T14:57:32.769Z,13.91
2022-10-25T15:02:41.874Z,13.84
2022-10-25T15:07:51.814Z,13.78
2022-10-25T15:13:32.694Z,13.74
2022-10-25T15:18:40.739Z,13.70
2022-10-25T15:24:20.960Z,13.67
2022-10-25T15:29:52.971Z,13.62
2022-10-25T15:35:04.040Z,13.58
2022-10-25T15:40:18.060Z,13.56
2022-10-25T15:45:25.244Z,13.54
2022-10-25T15:50:42.957Z,13.51
2022-10-25T15:55:58.027Z,13.47
2022-10-25T16:01:04.236Z,13.43
2022-10-25T16:06:19.978Z,13.41
2022-10-25T16:11:29.102Z,13.37
2022-10-25T16:16:42.168Z,13.31
2022-10-25T16:22:01.971Z,13.27
2022-10-25T16:27:14.406Z,13.23
2022-10-25T16:32:21.405Z,13.22
2022-10-25T16:37:28.305Z,13.19
2022-10-25T16:42:37.485Z,13.16
2022-10-25T16:47:43.881Z,13.12
2022-10-25T16:52:50.371Z,13.08
2022-10-25T16:58:00.203Z,13.05
2022-10-25T17:03:08.504Z,13.03
2022-10-25T17:08:16.759Z,13.01
2022-10-25T17:13:26.931Z,12.99
2022-10-25T17:18:35.654Z,12.98
2022-10-25T17:24:10.022Z,12.94
2022-10-25T17:29:19.168Z,12.88
2022-10-25T17:34:27.923Z,12.86
2022-10-25T17:39:34.936Z,12.85
2022-10-25T17:44:45.251Z,12.82
2022-10-25T17:50:02.173Z,12.77
2022-10-25T17:55:11.768Z,12.75
2022-10-25T18:00:25.183Z,12.77
2022-10-25T18:05:33.279Z,12.79
2022-10-25T18:10:40.083Z,12.77
2022-10-25T18:15:54.728Z,12.76
2022-10-25T18:21:10.889Z,12.76
2022-10-25T18:26:20.023Z,12.73
2022-10-25T18:31:29.091Z,12.72
2022-10-25T18:36:35.829Z,12.72
2022-10-25T18:41:43.713Z,12.72
2022-10-25T18:46:57.207Z,12.69
2022-10-25T18:52:03.959Z,12.69
2022-10-25T18:57:15.376Z,12.69
2022-10-25T19:02:27.579Z,12.66
2022-10-25T19:07:37.039Z,12.65
2022-10-25T19:12:45.842Z,12.65
2022-10-25T19:17:54.858Z,12.65
2022-10-25T19:23:04.105Z,12.64
2022-10-25T19:28:19.344Z,12.63
2022-10-25T19:33:29.783Z,12.62
2022-10-25T19:38:37.956Z,12.60
2022-10-25T19:43:53.742Z,12.61
2022-10-25T19:49:09.697Z,12.59
2022-10-25T19:54:19.979Z,12.60
2022-10-25T19:59:31.022Z,12.59
2022-10-25T20:04:39.358Z,12.57
2022-10-25T20:09:51.045Z,12.55
2022-10-25T20:15:02.366Z,12.54
2022-10-25T20:20:14.257Z,12.55
2022-10-25T20:25:21.149Z,12.52
2022-10-25T20:30:30.282Z,12.50
2022-10-25T20:35:40.759Z,12.52
2022-10-25T20:40:47.301Z,12.51
2022-10-25T20:45:58.226Z,12.52
2022-10-25T20:51:15.398Z,12.50
2022-10-25T20:56:25.626Z,12.49
2022-10-25T21:01:32.263Z,12.49
2022-10-25T21:06:39.838Z,12.47
2022-10-25T21:11:46.157Z,12.47
2022-10-25T21:16:52.498Z,12.46
2022-10-25T21:22:00.879Z,12.45
2022-10-25T21:27:08.493Z,12.44
2022-10-25T21:32:14.666Z,12.45
2022-10-25T21:37:22.295Z,12.46
2022-10-25T21:42:31.423Z,12.46
2022-10-25T21:47:37.703Z,12.45
2022-10-25T21:52:48.646Z,12.46
2022-10-25T21:57:56.112Z,12.44
2022-10-25T22:03:02.640Z,12.46
2022-10-25T22:08:13.832Z,12.46
2022-10-25T22:13:23.240Z,12.43
2022-10-25T22:18:32.180Z,12.43
2022-10-25T22:23:40.842Z,12.43
2022-10-25T22:28:50.313Z,12.42
2022-10-25T22:33:57.681Z,12.40
2022-10-25T22:39:10.228Z,12.39
2022-10-25T22:44:26.043Z,12.38
2022-10-25T22:49:36.721Z,12.35
2022-10-25T22:54:45.009Z,12.37
2022-10-25T22:59:50.844Z,12.37
2022-10-25T23:04:59.302Z,12.35
2022-10-25T23:10:07.843Z,12.32
2022-10-25T23:15:13.885Z,12.29
2022-10-25T23:20:26.320Z,12.27
2022-10-25T23:25:36.717Z,12.27
2022-10-25T23:31:01.821Z,12.26
2022-10-25T23:36:12.317Z,12.24
2022-10-25T23:41:21.591Z,12.24
2022-10-25T23:46:27.650Z,12.21
2022-10-25T23:51:34.581Z,12.19
2022-10-25T23:56:41.880Z,12.17
